Time;durP1;ratioP1;P1;durP2;ratioP2;P2;SDS_P1;SDS_P2;PMS_P1;PMS_P2;Temp;Humidity;BMP_temperature;BMP_pressure;BME280_temperature;BME280_humidity;BME280_pressure;Samples;Min_cycle;Max_cycle;Signal;HPM_P1;HPM_P2
2022/10/24 00:00:27;;;;;;;2.65;2.20;;;12.90;99.90;;;;;;5036439;28;20187;-83
2022/10/24 00:02:52;;;;;;;3.50;2.20;;;12.20;99.90;;;;;;5035893;28;20269;-83
2022/10/24 00:05:18;;;;;;;4.63;2.30;;;12.20;1.00;;;;;;5038069;28;20207;-82
2022/10/24 00:07:44;;;;;;;2.80;2.42;;;12.10;1.00;;;;;;5034994;28;20663;-83
2022/10/24 00:10:13;;;;;;;2.97;2.13;;;12.00;30.80;;;;;;5036903;28;20742;-83
2022/10/24 00:12:38;;;;;;;2.03;1.83;;;12.10;1.00;;;;;;5035519;28;20655;-83
2022/10/24 00:15:05;;;;;;;3.55;2.30;;;12.30;99.90;;;;;;5034668;28;20324;-83
2022/10/24 00:17:31;;;;;;;3.38;2.45;;;12.50;99.90;;;;;;5036154;28;20183;-83
2022/10/24 00:19:58;;;;;;;2.85;2.30;;;12.40;1.00;;;;;;5043299;28;20183;-83
2022/10/24 00:22:24;;;;;;;2.90;2.10;;;12.50;99.90;;;;;;5035719;28;20187;-83
2022/10/24 00:24:50;;;;;;;2.45;1.90;;;12.60;99.90;;;;;;5038041;28;20712;-82
2022/10/24 00:27:15;;;;;;;3.40;2.00;;;12.90;73.10;;;;;;5036923;28;20567;-84
2022/10/24 00:29:41;;;;;;;2.83;1.65;;;12.70;99.90;;;;;;5037670;28;20198;-83
2022/10/24 00:32:06;;;;;;;1.77;1.60;;;12.80;1.00;;;;;;5037343;28;20312;-82
2022/10/24 00:34:32;;;;;;;4.70;1.80;;;13.50;99.90;;;;;;5037080;28;20644;-81
2022/10/24 00:36:57;;;;;;;2.88;1.52;;;12.90;99.90;;;;;;5035104;28;20175;-83
2022/10/24 00:39:23;;;;;;;3.42;1.65;;;13.00;76.60;;;;;;5036210;28;20194;-84
2022/10/24 00:41:49;;;;;;;2.95;1.70;;;13.10;1.00;;;;;;5034759;28;20548;-82
2022/10/24 00:44:16;;;;;;;2.97;1.85;;;13.10;1.00;;;;;;5035795;28;20205;-81
2022/10/24 00:46:50;;;;;;;2.97;1.50;;;13.00;1.00;;;;;;5035380;28;20203;-85
2022/10/24 00:49:21;;;;;;;3.38;1.63;;;12.90;1.00;;;;;;5034982;28;20613;-81
2022/10/24 00:51:52;;;;;;;3.03;1.65;;;12.80;1.00;;;;;;5034578;28;20174;-84
2022/10/24 00:54:19;;;;;;;3.15;1.52;;;13.00;1.00;;;;;;5035310;28;20198;-84
2022/10/24 00:56:55;;;;;;;3.70;1.77;;;12.70;1.00;;;;;;5035544;28;20214;-81
2022/10/24 00:59:22;;;;;;;1.88;1.65;;;12.70;1.00;;;;;;5034565;28;20194;-82
2022/10/24 01:01:48;;;;;;;3.13;1.80;;;12.60;1.00;;;;;;5035251;28;20613;-83
2022/10/24 01:04:14;;;;;;;2.88;1.98;;;12.40;97.80;;;;;;5036712;28;20226;-83
2022/10/24 01:06:54;;;;;;;3.70;1.67;;;12.40;99.90;;;;;;5034865;28;21236;-83
2022/10/24 01:09:52;;;;;;;2.40;1.80;;;12.30;99.90;;;;;;5034728;28;20175;-83
2022/10/24 01:12:36;;;;;;;3.85;2.03;;;12.20;1.00;;;;;;5034890;28;20218;-82
2022/10/24 01:15:21;;;;;;;3.28;1.98;;;12.10;1.00;;;;;;5035083;28;20233;-81
2022/10/24 01:17:59;;;;;;;2.45;1.80;;;12.00;99.90;;;;;;5034325;28;20283;-82
2022/10/24 01:20:27;;;;;;;2.63;1.90;;;11.90;99.90;;;;;;5034332;28;20182;-82
2022/10/24 01:23:21;;;;;;;2.10;1.83;;;11.80;1.00;;;;;;5035659;28;20182;-85
2022/10/24 01:26:20;;;;;;;3.75;1.90;;;11.80;99.90;;;;;;5036174;28;20256;-83
2022/10/24 01:29:16;;;;;;;4.43;2.00;;;11.70;1.00;;;;;;5034345;28;20183;-82
2022/10/24 01:31:54;;;;;;;6.18;2.03;;;11.70;99.90;;;;;;5034715;28;20328;-84
2022/10/24 01:34:33;;;;;;;2.50;1.80;;;11.60;1.00;;;;;;5033828;28;20202;-83
2022/10/24 01:37:08;;;;;;;2.58;1.83;;;11.60;20.70;;;;;;5043496;28;20186;-82
2022/10/24 01:39:41;;;;;;;2.85;2.03;;;11.60;99.90;;;;;;5036171;28;20196;-80
2022/10/24 01:42:08;;;;;;;2.38;1.90;;;11.90;99.90;;;;;;5035140;28;20182;-83
2022/10/24 01:44:41;;;;;;;3.38;2.22;;;11.50;99.90;;;;;;5034473;28;20209;-83
2022/10/24 01:47:21;;;;;;;4.32;2.05;;;11.60;1.00;;;;;;5035187;28;20214;-82
2022/10/24 01:49:58;;;;;;;3.13;1.83;;;11.60;1.00;;;;;;5034100;28;20181;-82
2022/10/24 01:52:28;;;;;;;2.72;2.10;;;11.70;99.90;;;;;;5034676;28;20708;-81
2022/10/24 01:54:54;;;;;;;4.10;2.17;;;11.80;99.90;;;;;;5042270;28;20245;-81
2022/10/24 01:57:19;;;;;;;3.65;2.05;;;11.80;1.00;;;;;;5035015;28;20213;-82
2022/10/24 01:59:47;;;;;;;2.17;1.90;;;12.40;1.00;;;;;;5033653;28;20191;-83
2022/10/24 02:02:38;;;;;;;3.58;2.30;;;11.60;13.40;;;;;;5034451;28;20205;-81
2022/10/24 02:05:23;;;;;;;3.00;1.95;;;11.60;85.00;;;;;;5032612;28;20305;-82
2022/10/24 02:07:53;;;;;;;3.45;2.25;;;11.60;96.70;;;;;;5034569;28;20225;-83
2022/10/24 02:10:25;;;;;;;2.78;2.10;;;11.60;99.90;;;;;;5033654;28;20178;-82
2022/10/24 02:13:05;;;;;;;6.45;2.53;;;11.50;99.90;;;;;;5033187;28;20544;-83
2022/10/24 02:15:39;;;;;;;4.18;2.88;;;11.50;1.00;;;;;;5035452;28;20275;-83
2022/10/24 02:18:06;;;;;;;5.18;2.38;;;11.60;99.90;;;;;;5032728;28;20183;-85
2022/10/24 02:20:36;;;;;;;3.17;2.75;;;11.80;99.90;;;;;;5035385;28;20183;-84
2022/10/24 02:23:12;;;;;;;4.53;2.60;;;11.70;99.90;;;;;;5034803;28;20253;-82
2022/10/24 02:25:43;;;;;;;5.40;2.80;;;11.70;99.90;;;;;;5033913;28;20234;-83
2022/10/24 02:28:21;;;;;;;4.70;2.83;;;11.90;99.90;;;;;;5033553;28;20191;-81
2022/10/24 02:30:59;;;;;;;3.47;2.50;;;11.60;1.00;;;;;;5034334;28;20178;-82
2022/10/24 02:33:27;;;;;;;2.92;2.63;;;11.60;1.00;;;;;;5034074;28;20673;-83
2022/10/24 02:35:54;;;;;;;5.38;2.85;;;11.50;99.90;;;;;;5033875;28;20209;-83
2022/10/24 02:38:29;;;;;;;4.30;2.70;;;11.40;99.90;;;;;;5034639;28;20689;-82
2022/10/24 02:40:56;;;;;;;4.60;2.90;;;11.50;99.90;;;;;;5033265;28;20185;-83
2022/10/24 02:43:22;;;;;;;7.85;3.42;;;11.70;24.80;;;;;;5032858;28;20557;-83
2022/10/24 02:45:50;;;;;;;4.68;3.15;;;12.00;99.90;;;;;;5034187;28;20209;-83
2022/10/24 02:48:20;;;;;;;5.80;3.45;;;11.90;1.00;;;;;;5033463;28;20273;-83
2022/10/24 02:50:47;;;;;;;4.72;3.30;;;11.80;99.90;;;;;;5035893;28;20185;-83
2022/10/24 02:53:18;;;;;;;6.35;3.25;;;11.90;1.00;;;;;;5050153;28;20182;-84
2022/10/24 02:55:43;;;;;;;6.18;3.30;;;12.30;1.00;;;;;;5030558;28;20214;-83
2022/10/24 02:58:09;;;;;;;4.85;3.10;;;12.10;75.90;;;;;;5033540;28;20221;-82
2022/10/24 03:00:34;;;;;;;6.15;2.95;;;11.90;1.00;;;;;;5033894;28;20197;-82
2022/10/24 03:03:00;;;;;;;5.35;3.20;;;12.10;1.00;;;;;;5033099;28;20697;-81
2022/10/24 03:05:26;;;;;;;7.80;3.65;;;11.90;99.90;;;;;;5033700;28;20203;-83
2022/10/24 03:07:51;;;;;;;6.60;3.80;;;11.90;99.90;;;;;;5032108;28;20274;-83
2022/10/24 03:10:17;;;;;;;5.50;3.50;;;11.80;1.00;;;;;;5033423;28;20256;-85
2022/10/24 03:12:42;;;;;;;5.00;3.38;;;12.50;99.90;;;;;;5032303;28;20231;-83
2022/10/24 03:15:08;;;;;;;5.22;3.13;;;12.40;99.90;;;;;;5032984;28;20686;-84
2022/10/24 03:17:34;;;;;;;6.85;3.38;;;11.80;1.00;;;;;;5034481;28;20182;-84
2022/10/24 03:19:59;;;;;;;7.07;3.45;;;11.70;99.90;;;;;;5034520;28;20651;-82
2022/10/24 03:22:25;;;;;;;5.00;3.30;;;11.60;1.00;;;;;;5036551;28;20183;-83
2022/10/24 03:24:51;;;;;;;4.88;2.78;;;11.60;99.90;;;;;;5037224;28;20750;-82
2022/10/24 03:27:16;;;;;;;6.88;3.28;;;11.50;1.00;;;;;;5051811;28;20211;-82
2022/10/24 03:29:42;;;;;;;5.00;3.00;;;12.10;1.00;;;;;;5038178;28;20674;-82
2022/10/24 03:32:07;;;;;;;4.60;2.97;;;11.40;1.00;;;;;;5038765;28;20558;-80
2022/10/24 03:34:33;;;;;;;5.55;2.97;;;11.40;55.90;;;;;;5035921;28;20284;-82
2022/10/24 03:36:59;;;;;;;4.45;2.95;;;11.40;67.40;;;;;;5037746;28;20186;-84
2022/10/24 03:39:24;;;;;;;6.03;3.22;;;11.40;99.90;;;;;;5037019;28;20183;-83
2022/10/24 03:41:50;;;;;;;5.30;3.30;;;11.30;1.00;;;;;;5037101;28;20195;-83
2022/10/24 03:44:16;;;;;;;4.90;3.13;;;11.30;95.70;;;;;;5035369;28;20213;-81
2022/10/24 03:46:41;;;;;;;8.75;3.92;;;11.40;1.00;;;;;;5036380;28;20203;-86
2022/10/24 03:49:07;;;;;;;7.88;3.58;;;12.30;1.00;;;;;;5035973;28;20219;-85
2022/10/24 03:51:32;;;;;;;6.47;3.22;;;11.50;1.00;;;;;;5037784;28;20171;-85
2022/10/24 03:53:58;;;;;;;7.38;3.78;;;11.80;99.90;;;;;;5035483;28;20174;-83
2022/10/24 03:56:23;;;;;;;6.80;3.88;;;11.60;1.00;;;;;;5037092;28;20580;-82
2022/10/24 03:58:49;;;;;;;8.05;3.95;;;12.60;99.90;;;;;;5035827;28;20199;-83
2022/10/24 04:01:17;;;;;;;7.15;3.90;;;11.70;99.90;;;;;;5038471;28;20654;-83
2022/10/24 04:03:44;;;;;;;5.93;3.40;;;11.60;1.00;;;;;;5036412;28;20183;-84
2022/10/24 04:06:10;;;;;;;7.00;3.45;;;11.60;99.90;;;;;;5036752;28;20775;-84
2022/10/24 04:08:35;;;;;;;10.10;3.40;;;11.60;1.00;;;;;;5036914;28;20183;-84
2022/10/24 04:11:01;;;;;;;5.28;3.28;;;11.90;1.00;;;;;;5036645;28;20182;-84
2022/10/24 04:13:27;;;;;;;6.75;3.50;;;11.50;99.90;;;;;;5036872;28;20187;-83
2022/10/24 04:15:52;;;;;;;8.73;3.78;;;12.00;99.90;;;;;;5051915;28;20209;-82
2022/10/24 04:18:18;;;;;;;7.50;3.50;;;11.50;99.90;;;;;;5036965;28;20194;-83
2022/10/24 04:20:44;;;;;;;7.43;4.38;;;11.40;99.90;;;;;;5036139;28;21037;-84
2022/10/24 04:23:09;;;;;;;5.32;3.90;;;11.50;1.00;;;;;;5035003;28;20274;-84
2022/10/24 04:25:35;;;;;;;8.15;4.20;;;11.90;1.00;;;;;;5037523;28;20289;-83
2022/10/24 04:28:00;;;;;;;9.38;4.00;;;11.50;1.00;;;;;;5037178;28;20267;-82
2022/10/24 04:30:27;;;;;;;7.30;3.78;;;11.70;99.90;;;;;;5036288;28;20179;-83
2022/10/24 04:32:53;;;;;;;5.55;3.55;;;11.90;16.30;;;;;;5035472;28;20185;-84
2022/10/24 04:35:19;;;;;;;6.00;4.13;;;11.60;99.90;;;;;;5035972;28;20211;-82
2022/10/24 04:37:44;;;;;;;6.70;4.53;;;12.30;69.00;;;;;;5034691;28;20324;-84
2022/10/24 04:40:10;;;;;;;5.72;4.43;;;11.70;1.00;;;;;;5037244;28;20222;-83
2022/10/24 04:42:36;;;;;;;7.45;4.05;;;11.60;13.70;;;;;;5036431;28;20248;-83
2022/10/24 04:45:02;;;;;;;7.57;4.25;;;11.90;39.90;;;;;;5035486;28;20199;-83
2022/10/24 04:47:28;;;;;;;6.68;4.28;;;11.60;99.90;;;;;;5035325;28;20683;-84
2022/10/24 04:49:53;;;;;;;5.90;3.97;;;11.60;1.00;;;;;;5036805;28;20179;-83
2022/10/24 04:52:19;;;;;;;7.82;4.55;;;11.60;1.00;;;;;;5034923;28;20202;-83
2022/10/24 04:54:44;;;;;;;5.43;3.92;;;12.20;1.00;;;;;;5035287;28;20309;-83
2022/10/24 04:57:10;;;;;;;5.95;4.00;;;11.90;99.90;;;;;;5035443;28;20193;-83
2022/10/24 04:59:36;;;;;;;9.82;4.40;;;11.60;1.00;;;;;;5035032;28;20183;-84
2022/10/24 05:02:01;;;;;;;7.90;4.43;;;11.70;1.00;;;;;;5034648;28;20532;-84
2022/10/24 05:04:27;;;;;;;7.43;4.60;;;11.70;99.60;;;;;;5035311;28;20202;-83
2022/10/24 05:06:52;;;;;;;10.27;4.50;;;11.70;99.90;;;;;;5036276;28;20307;-82
2022/10/24 05:09:18;;;;;;;6.47;4.68;;;11.70;1.00;;;;;;5034284;28;20183;-85
2022/10/24 05:11:44;;;;;;;6.20;4.78;;;11.80;1.00;;;;;;5036249;28;20843;-84
2022/10/24 05:14:09;;;;;;;6.20;4.75;;;12.60;99.90;;;;;;5036100;28;20297;-83
2022/10/24 05:16:35;;;;;;;6.35;4.55;;;12.60;99.90;;;;;;5034682;28;20313;-81
2022/10/24 05:19:00;;;;;;;10.13;4.82;;;11.80;99.90;;;;;;5036860;28;20206;-83
2022/10/24 05:21:26;;;;;;;5.97;4.78;;;11.90;1.00;;;;;;5036493;28;20190;-83
2022/10/24 05:23:51;;;;;;;7.30;4.72;;;11.70;99.90;;;;;;5035232;28;20546;-83
2022/10/24 05:26:17;;;;;;;7.78;4.90;;;12.10;99.90;;;;;;5034610;28;20206;-83
2022/10/24 05:28:43;;;;;;;8.60;5.18;;;11.90;1.00;;;;;;5035614;28;20176;-85
2022/10/24 05:31:08;;;;;;;9.73;5.60;;;11.80;99.90;;;;;;5035252;28;20182;-83
2022/10/24 05:33:34;;;;;;;10.70;5.57;;;12.10;99.90;;;;;;5036315;28;20206;-83
2022/10/24 05:36:00;;;;;;;8.52;5.28;;;12.00;99.90;;;;;;5034401;28;20210;-82
2022/10/24 05:38:25;;;;;;;9.65;4.95;;;12.30;1.00;;;;;;5034849;28;20274;-83
2022/10/24 05:40:51;;;;;;;9.52;5.10;;;12.10;99.90;;;;;;5035037;28;20187;-82
2022/10/24 05:43:17;;;;;;;7.65;4.90;;;12.20;99.90;;;;;;5032268;28;20287;-82
2022/10/24 05:45:43;;;;;;;9.10;5.45;;;12.10;1.00;;;;;;5032503;28;20772;-84
2022/10/24 05:48:09;;;;;;;10.32;5.25;;;12.50;99.90;;;;;;5034556;28;20224;-83
2022/10/24 05:50:35;;;;;;;10.63;5.47;;;12.20;1.00;;;;;;5035509;28;20210;-83
2022/10/24 05:53:01;;;;;;;8.35;4.97;;;12.60;1.00;;;;;;5033287;28;20174;-82
2022/10/24 05:55:27;;;;;;;9.35;4.95;;;12.20;99.90;;;;;;5035291;28;20702;-82
2022/10/24 05:57:52;;;;;;;12.80;5.40;;;12.80;98.00;;;;;;5034636;28;20208;-82
2022/10/24 06:00:18;;;;;;;7.60;5.05;;;12.30;1.00;;;;;;5033826;28;20807;-83
2022/10/24 06:02:45;;;;;;;6.93;4.85;;;12.20;1.00;;;;;;5035695;28;20667;-84
2022/10/24 06:05:12;;;;;;;10.13;4.50;;;12.30;99.90;;;;;;5031588;28;20257;-81
2022/10/24 06:07:40;;;;;;;6.75;4.68;;;12.30;99.90;;;;;;5036457;28;20174;-84
2022/10/24 06:10:07;;;;;;;10.05;5.00;;;12.70;99.90;;;;;;5034489;28;20185;-83
2022/10/24 06:12:35;;;;;;;10.05;4.90;;;12.20;99.90;;;;;;5032328;28;20183;-82
2022/10/24 06:15:02;;;;;;;7.47;4.72;;;12.80;99.90;;;;;;5033457;28;20202;-84
2022/10/24 06:17:27;;;;;;;9.82;5.25;;;12.20;1.00;;;;;;5031796;28;20300;-83
2022/10/24 06:19:53;;;;;;;10.30;4.97;;;12.20;1.00;;;;;;5031816;28;20343;-82
2022/10/24 06:22:19;;;;;;;10.90;5.05;;;12.20;1.00;;;;;;5031409;28;20202;-83
2022/10/24 06:24:44;;;;;;;7.28;4.93;;;12.20;1.00;;;;;;5032592;28;20205;-83
2022/10/24 06:27:11;;;;;;;9.60;5.38;;;12.20;1.00;;;;;;5033030;28;20204;-81
2022/10/24 06:29:36;;;;;;;6.80;5.03;;;12.10;99.90;;;;;;5034990;28;20197;-83
2022/10/24 06:32:03;;;;;;;10.77;5.50;;;12.10;99.90;;;;;;5035220;28;20626;-81
2022/10/24 06:34:28;;;;;;;8.13;5.07;;;12.10;1.00;;;;;;5031317;28;20289;-84
2022/10/24 06:36:54;;;;;;;9.45;5.45;;;12.10;1.00;;;;;;5034594;28;20261;-82
2022/10/24 06:39:20;;;;;;;9.75;5.88;;;12.20;20.10;;;;;;5034598;28;20190;-85
2022/10/24 06:41:45;;;;;;;8.30;4.97;;;12.20;1.00;;;;;;5034295;28;20179;-85
2022/10/24 06:44:11;;;;;;;9.88;5.30;;;12.40;1.00;;;;;;5033774;28;20198;-82
2022/10/24 06:46:37;;;;;;;8.00;5.00;;;12.40;1.00;;;;;;5034616;28;20241;-81
2022/10/24 06:49:02;;;;;;;8.77;5.40;;;12.50;1.00;;;;;;5034897;28;20240;-82
2022/10/24 06:51:28;;;;;;;9.70;4.97;;;13.40;99.90;;;;;;5036011;28;20190;-81
2022/10/24 06:53:54;;;;;;;13.13;5.50;;;12.80;1.00;;;;;;5035330;28;20646;-83
2022/10/24 06:56:19;;;;;;;7.93;5.20;;;12.60;1.00;;;;;;5034431;28;20224;-82
2022/10/24 06:58:45;;;;;;;7.18;5.25;;;12.60;99.90;;;;;;5038348;28;20240;-82
2022/10/24 07:01:22;;;;;;;8.73;5.30;;;12.70;99.90;;;;;;5036590;28;20671;-78
2022/10/24 07:03:48;;;;;;;11.40;5.28;;;12.60;99.90;;;;;;5037264;28;20228;-82
2022/10/24 07:06:28;;;;;;;8.80;4.97;;;12.80;99.90;;;;;;5036973;28;20213;-81
2022/10/24 07:08:56;;;;;;;11.82;6.07;;;12.70;1.00;;;;;;5036806;28;20331;-83
2022/10/24 07:11:22;;;;;;;8.02;4.60;;;13.10;1.00;;;;;;5037852;28;20733;-82
2022/10/24 07:13:48;;;;;;;8.25;5.38;;;12.90;1.00;;;;;;5036882;28;20552;-81
2022/10/24 07:16:14;;;;;;;8.20;4.63;;;13.20;99.90;;;;;;5036433;28;20207;-83
2022/10/24 07:18:40;;;;;;;8.93;4.53;;;13.00;99.90;;;;;;5037544;28;20289;-80
2022/10/24 07:21:13;;;;;;;8.27;4.50;;;13.10;1.00;;;;;;5037604;28;20257;-82
2022/10/24 07:23:39;;;;;;;12.30;3.97;;;12.90;99.90;;;;;;5035336;28;20235;-82
2022/10/24 07:26:11;;;;;;;8.27;4.30;;;13.10;99.90;;;;;;5036904;28;20198;-84
2022/10/24 07:28:38;;;;;;;6.57;3.75;;;13.10;99.90;;;;;;5038861;28;20982;-83
2022/10/24 07:31:04;;;;;;;7.13;3.50;;;13.40;1.00;;;;;;5038478;28;20179;-85
2022/10/24 07:33:31;;;;;;;7.05;3.90;;;13.30;1.00;;;;;;5037332;28;20302;-80
2022/10/24 07:35:57;;;;;;;7.15;3.80;;;13.90;99.90;;;;;;5037220;28;20202;-83
2022/10/24 07:38:23;;;;;;;15.68;3.90;;;13.50;99.90;;;;;;5036967;28;20240;-83
2022/10/24 07:40:49;;;;;;;9.57;3.88;;;13.60;99.90;;;;;;5036722;28;20669;-83
2022/10/24 07:43:16;;;;;;;7.53;3.65;;;13.50;95.40;;;;;;5035211;28;20191;-84
2022/10/24 07:45:42;;;;;;;6.45;3.95;;;13.50;36.80;;;;;;5036498;28;20205;-84
2022/10/24 07:48:08;;;;;;;8.00;3.63;;;13.50;1.00;;;;;;5036758;28;20186;-82
2022/10/24 07:50:39;;;;;;;8.63;3.22;;;13.70;1.00;;;;;;5037884;28;20178;-82
2022/10/24 07:53:04;;;;;;;8.02;3.42;;;13.50;1.00;;;;;;5037384;28;20217;-83
2022/10/24 07:55:30;;;;;;;7.22;2.90;;;14.00;1.00;;;;;;5037146;28;20282;-82
2022/10/24 07:57:56;;;;;;;7.70;2.67;;;13.90;1.00;;;;;;5036630;28;20185;-81
2022/10/24 08:00:21;;;;;;;9.15;2.95;;;14.00;1.00;;;;;;5035591;28;20196;-81
2022/10/24 08:02:47;;;;;;;7.93;2.78;;;14.10;1.00;;;;;;5037798;28;20183;-82
2022/10/24 08:05:12;;;;;;;5.88;2.30;;;14.20;99.90;;;;;;5036276;28;20214;-81
2022/10/24 08:07:38;;;;;;;5.40;2.38;;;14.30;99.90;;;;;;5033468;28;20186;-82
2022/10/24 08:10:08;;;;;;;6.97;2.60;;;14.40;99.90;;;;;;5034008;28;20212;-81
2022/10/24 08:12:33;;;;;;;6.05;2.30;;;14.60;99.90;;;;;;5036390;28;20199;-82
2022/10/24 08:14:59;;;;;;;8.63;2.05;;;14.70;99.90;;;;;;5034434;28;20244;-83
2022/10/24 08:17:24;;;;;;;5.80;1.88;;;14.80;99.90;;;;;;5035554;28;20194;-82
2022/10/24 08:19:50;;;;;;;5.28;1.95;;;15.20;99.90;;;;;;5033908;28;20191;-82
2022/10/24 08:22:16;;;;;;;5.53;1.80;;;15.40;99.90;;;;;;5038535;28;20198;-85
2022/10/24 08:24:45;;;;;;;4.82;2.10;;;15.60;84.50;;;;;;5041468;28;20203;-84
2022/10/24 08:27:11;;;;;;;7.18;1.98;;;15.60;55.20;;;;;;5034666;28;20207;-85
2022/10/24 08:29:37;;;;;;;5.63;1.90;;;15.80;36.00;;;;;;5035233;28;20269;-85
2022/10/24 08:32:05;;;;;;;4.28;1.90;;;15.90;29.40;;;;;;5035169;28;20178;-85
2022/10/24 08:34:31;;;;;;;3.85;1.65;;;15.90;16.60;;;;;;5034574;28;20694;-85
2022/10/24 08:36:56;;;;;;;7.78;2.33;;;16.00;13.40;;;;;;5037778;28;20194;-85
2022/10/24 08:39:22;;;;;;;3.22;1.83;;;16.20;1.00;;;;;;5037458;28;20236;-85
2022/10/24 08:41:54;;;;;;;7.10;2.55;;;16.20;1.00;;;;;;5036811;28;20190;-86
2022/10/24 08:44:39;;;;;;;7.32;1.63;;;16.20;1.00;;;;;;5052722;28;20238;-84
2022/10/24 08:47:43;;;;;;;5.63;2.30;;;16.50;1.00;;;;;;5045564;28;20281;-85
2022/10/24 08:50:29;;;;;;;6.50;1.83;;;16.70;1.00;;;;;;5034763;28;20187;-84
2022/10/24 08:53:08;;;;;;;9.30;2.33;;;16.80;1.00;;;;;;5035860;28;20216;-84
2022/10/24 08:55:52;;;;;;;6.72;2.00;;;16.80;1.00;;;;;;5036650;28;20218;-85
2022/10/24 08:58:23;;;;;;;5.10;1.63;;;16.80;1.00;;;;;;5036616;28;20179;-85
2022/10/24 09:00:51;;;;;;;6.05;2.00;;;16.80;1.00;;;;;;5036072;28;20189;-85
2022/10/24 09:03:33;;;;;;;9.30;2.30;;;16.90;1.00;;;;;;5035070;28;20198;-85
2022/10/24 09:06:10;;;;;;;5.55;1.58;;;16.90;1.00;;;;;;5036109;28;20197;-85
2022/10/24 09:08:57;;;;;;;5.15;1.98;;;17.10;1.00;;;;;;5037152;28;20612;-84
2022/10/24 09:11:42;;;;;;;4.85;1.60;;;17.10;1.00;;;;;;5037658;28;20181;-85
2022/10/24 09:14:20;;;;;;;7.63;1.98;;;17.00;1.00;;;;;;5035099;28;20186;-85
2022/10/24 09:16:53;;;;;;;5.40;1.90;;;17.00;1.00;;;;;;5044474;28;20658;-85
2022/10/24 09:19:22;;;;;;;6.07;1.65;;;17.10;1.00;;;;;;5035477;28;20249;-85
2022/10/24 09:21:50;;;;;;;3.97;1.55;;;17.10;1.00;;;;;;5037207;28;21058;-83
2022/10/24 09:24:18;;;;;;;5.78;1.73;;;17.20;1.00;;;;;;5037311;28;20199;-84
2022/10/24 09:26:44;;;;;;;3.13;1.60;;;17.40;1.00;;;;;;5035382;28;20236;-84
2022/10/24 09:29:10;;;;;;;5.38;1.98;;;17.20;1.00;;;;;;5036454;28;20214;-85
2022/10/24 09:31:36;;;;;;;5.90;1.95;;;17.20;1.00;;;;;;5035722;28;20179;-84
2022/10/24 09:34:03;;;;;;;5.40;1.67;;;17.40;1.00;;;;;;5033594;28;20175;-84
2022/10/24 09:36:29;;;;;;;9.23;1.92;;;17.30;1.00;;;;;;5034591;28;20193;-85
2022/10/24 09:38:55;;;;;;;5.85;1.70;;;17.30;1.00;;;;;;5034450;28;20233;-85
2022/10/24 09:41:27;;;;;;;6.60;2.05;;;17.30;1.00;;;;;;5034506;28;20194;-86
2022/10/24 09:43:55;;;;;;;7.78;1.58;;;17.20;1.00;;;;;;5035350;28;20178;-86
2022/10/24 09:46:25;;;;;;;5.03;1.90;;;17.30;1.00;;;;;;5037228;28;20202;-85
2022/10/24 09:49:00;;;;;;;4.93;1.63;;;17.40;1.00;;;;;;5035688;28;20194;-84
2022/10/24 09:51:33;;;;;;;6.93;1.70;;;17.40;1.00;;;;;;5035534;28;20228;-83
2022/10/24 09:54:00;;;;;;;6.72;1.70;;;17.50;1.00;;;;;;5036548;28;20174;-85
2022/10/24 09:56:40;;;;;;;7.22;1.92;;;17.50;1.00;;;;;;5037577;28;20259;-84
2022/10/24 09:59:42;;;;;;;6.88;1.88;;;17.40;1.00;;;;;;5036574;28;20190;-84
2022/10/24 10:02:22;;;;;;;5.35;1.90;;;17.40;1.00;;;;;;5037437;28;20662;-84
2022/10/24 10:05:03;;;;;;;4.68;1.60;;;17.50;1.00;;;;;;5052362;28;20230;-85
2022/10/24 10:07:37;;;;;;;7.18;1.90;;;17.50;1.00;;;;;;5039701;28;20206;-84
2022/10/24 10:10:29;;;;;;;7.18;1.95;;;17.70;1.00;;;;;;5031969;28;20554;-84
2022/10/24 10:12:59;;;;;;;5.85;1.80;;;17.90;1.00;;;;;;5033568;28;20208;-83
2022/10/24 10:15:28;;;;;;;5.20;1.90;;;18.00;1.00;;;;;;5025927;28;20639;-84
2022/10/24 10:17:58;;;;;;;7.95;2.05;;;18.10;1.00;;;;;;5030643;28;20244;-84
2022/10/24 10:20:39;;;;;;;7.10;2.00;;;18.00;1.00;;;;;;5030891;28;20252;-85
2022/10/24 10:23:39;;;;;;;4.53;1.95;;;18.00;1.00;;;;;;5029201;28;20205;-85
2022/10/24 10:26:43;;;;;;;3.38;1.70;;;18.20;1.00;;;;;;5027191;28;20222;-85
2022/10/24 10:29:18;;;;;;;5.97;1.85;;;18.10;1.00;;;;;;5033509;28;20194;-84
2022/10/24 10:31:48;;;;;;;5.53;1.90;;;18.20;1.00;;;;;;5034461;28;20179;-84
2022/10/24 10:34:30;;;;;;;5.43;2.05;;;18.20;1.00;;;;;;5038263;28;20202;-84
2022/10/24 10:37:21;;;;;;;9.98;2.40;;;18.30;1.00;;;;;;5034436;28;20265;-84
2022/10/24 10:40:06;;;;;;;5.70;1.95;;;18.20;1.00;;;;;;5035135;28;20177;-84
2022/10/24 10:42:44;;;;;;;9.23;2.25;;;18.30;1.00;;;;;;5034471;28;20181;-84
2022/10/24 10:45:12;;;;;;;7.55;2.20;;;18.50;1.00;;;;;;5031880;28;20454;-84
2022/10/24 10:47:50;;;;;;;7.45;2.08;;;18.60;1.00;;;;;;5034420;28;20685;-85
2022/10/24 10:50:35;;;;;;;3.47;1.90;;;18.70;1.00;;;;;;5033805;28;20732;-84
2022/10/24 10:53:14;;;;;;;6.85;2.00;;;18.80;1.00;;;;;;5032269;28;20187;-84
2022/10/24 10:56:02;;;;;;;9.32;2.30;;;19.00;1.00;;;;;;5029265;28;20217;-84
2022/10/24 10:58:42;;;;;;;4.68;1.60;;;19.00;1.00;;;;;;4990769;28;20201;-83
2022/10/24 11:01:35;;;;;;;6.53;2.08;;;19.10;1.00;;;;;;5033535;28;20186;-86
2022/10/24 11:04:12;;;;;;;6.97;1.83;;;18.90;1.00;;;;;;5033256;28;20693;-84
2022/10/24 11:06:50;;;;;;;7.15;2.38;;;19.00;1.00;;;;;;5034447;28;20194;-86
2022/10/24 11:09:36;;;;;;;5.78;1.88;;;19.00;1.00;;;;;;5034887;28;20719;-84
2022/10/24 11:12:44;;;;;;;9.30;2.10;;;19.20;1.00;;;;;;5048429;28;20201;-83
2022/10/24 11:15:36;;;;;;;7.68;1.90;;;19.10;1.00;;;;;;4994041;28;20199;-85
2022/10/24 11:18:08;;;;;;;5.65;1.70;;;19.10;1.00;;;;;;4985427;28;20222;-84
2022/10/24 11:20:40;;;;;;;4.35;1.58;;;19.10;1.00;;;;;;5024361;28;20194;-84
2022/10/24 11:23:08;;;;;;;5.88;2.00;;;19.10;1.00;;;;;;5034535;28;20703;-82
2022/10/24 11:25:43;;;;;;;5.18;2.25;;;19.00;1.00;;;;;;5031597;28;20210;-85
2022/10/24 11:28:24;;;;;;;5.03;1.92;;;19.00;1.00;;;;;;5032321;28;20272;-84
2022/10/24 11:30:59;;;;;;;3.88;1.50;;;19.00;1.00;;;;;;5035154;28;20186;-83
2022/10/24 11:33:34;;;;;;;5.25;1.70;;;19.00;1.00;;;;;;5032444;28;20183;-85
2022/10/24 11:36:00;;;;;;;7.25;2.42;;;19.00;1.00;;;;;;5031782;28;20212;-86
2022/10/24 11:38:27;;;;;;;6.45;1.63;;;19.00;1.00;;;;;;5032595;28;20273;-84
2022/10/24 11:41:02;;;;;;;4.93;1.42;;;19.20;1.00;;;;;;5033033;28;20198;-84
2022/10/24 11:43:34;;;;;;;4.75;1.55;;;19.30;1.00;;;;;;5033520;28;20295;-83
2022/10/24 11:46:11;;;;;;;3.67;1.50;;;19.30;1.00;;;;;;5036189;28;20206;-85
2022/10/24 11:48:47;;;;;;;4.75;1.58;;;19.10;1.00;;;;;;5035476;28;20178;-85
2022/10/24 11:51:21;;;;;;;3.45;1.48;;;18.90;1.00;;;;;;5035966;28;20182;-82
2022/10/24 11:53:55;;;;;;;7.47;1.63;;;18.80;1.00;;;;;;5037295;28;20182;-83
2022/10/24 11:56:33;;;;;;;5.03;1.85;;;18.60;1.00;;;;;;5036713;28;20191;-85
2022/10/24 11:59:05;;;;;;;2.85;1.35;;;18.60;1.00;;;;;;5034795;28;20178;-84
2022/10/24 12:01:36;;;;;;;5.10;1.80;;;18.60;1.00;;;;;;5034877;28;20194;-82
2022/10/24 12:04:20;;;;;;;6.00;1.75;;;18.70;1.00;;;;;;5036969;28;20175;-83
2022/10/24 12:07:40;;;;;;;4.43;1.50;;;18.60;1.00;;;;;;5035073;28;20210;-84
2022/10/24 12:10:17;;;;;;;4.20;1.63;;;18.90;1.00;;;;;;5034872;28;20598;-85
2022/10/24 12:12:55;;;;;;;5.28;1.50;;;18.90;1.00;;;;;;5036189;28;20261;-85
2022/10/24 12:15:36;;;;;;;7.15;1.70;;;18.80;1.00;;;;;;5038516;28;20202;-85
2022/10/24 12:18:26;;;;;;;5.93;1.98;;;18.80;1.00;;;;;;5036480;28;20182;-85
2022/10/24 12:20:54;;;;;;;5.82;1.50;;;19.10;1.00;;;;;;5034682;28;20932;-85
2022/10/24 12:23:23;;;;;;;4.40;1.45;;;19.20;1.00;;;;;;5035508;28;20673;-85
2022/10/24 12:26:17;;;;;;;6.30;1.73;;;19.30;1.00;;;;;;5034132;28;20723;-85
2022/10/24 12:28:53;;;;;;;2.17;1.42;;;19.10;1.00;;;;;;5035059;28;20182;-85
2022/10/24 12:31:22;;;;;;;6.13;1.88;;;19.10;1.00;;;;;;5035708;28;20183;-85
2022/10/24 12:34:14;;;;;;;4.82;1.63;;;19.00;1.00;;;;;;5034652;28;20214;-85
2022/10/24 12:37:27;;;;;;;4.25;1.60;;;19.10;1.00;;;;;;5034490;28;20270;-86
2022/10/24 12:39:54;;;;;;;4.50;1.92;;;19.00;1.00;;;;;;5033224;28;20190;-84
2022/10/24 12:42:23;;;;;;;4.82;1.70;;;18.90;1.00;;;;;;5030125;28;20202;-84
2022/10/24 12:45:00;;;;;;;5.40;2.00;;;18.80;1.00;;;;;;5038282;28;20195;-84
2022/10/24 12:47:26;;;;;;;4.28;1.58;;;18.80;1.00;;;;;;5024196;28;20724;-83
2022/10/24 12:49:52;;;;;;;4.75;2.00;;;18.70;1.00;;;;;;5022088;28;20179;-85
2022/10/24 12:52:29;;;;;;;4.80;1.80;;;18.80;1.00;;;;;;5033605;28;20210;-84
2022/10/24 12:54:56;;;;;;;5.63;1.50;;;18.70;1.00;;;;;;5026414;28;20718;-87
2022/10/24 12:57:44;;;;;;;4.57;1.83;;;18.70;1.00;;;;;;5023000;28;20899;-84
2022/10/24 13:00:26;;;;;;;3.63;1.80;;;18.60;1.00;;;;;;5025652;28;20197;-83
2022/10/24 13:03:36;;;;;;;5.35;2.30;;;18.80;1.00;;;;;;5031150;28;21024;-83
2022/10/24 13:06:24;;;;;;;3.80;2.00;;;19.00;1.00;;;;;;5020860;28;20222;-85
2022/10/24 13:09:28;;;;;;;4.75;2.33;;;19.10;1.00;;;;;;5023711;28;20662;-83
2022/10/24 13:12:08;;;;;;;6.57;2.28;;;19.00;1.00;;;;;;5022109;28;20573;-83
2022/10/24 13:15:13;;;;;;;5.28;2.00;;;18.90;1.00;;;;;;5029337;28;20247;-84